Time;durP1;ratioP1;P1;durP2;ratioP2;P2;SDS_P1;SDS_P2;PMS_P1;PMS_P2;Temp;Humidity;BMP_temperature;BMP_pressure;BME280_temperature;BME280_humidity;BME280_pressure;Samples;Min_cycle;Max_cycle;Signal;HPM_P1;HPM_P2
2022/01/23 00:00:02;;;;;;;;;;;4.90;99.90;;;;;;5134242;27;19907;-74
2022/01/23 00:02:29;;;;;;;;;;;4.80;99.90;;;;;;5134565;27;19954;-74
2022/01/23 00:04:54;;;;;;;;;;;;;;;;;;5133720;27;20306;-78
2022/01/23 00:07:20;;;;;;;;;;;4.80;99.90;;;;;;5134008;27;19912;-74
2022/01/23 00:09:46;;;;;;;;;;;4.90;99.90;;;;;;5134130;27;19950;-74
2022/01/23 00:12:16;;;;;;;;;;;4.80;99.90;;;;;;5133584;27;19915;-74
2022/01/23 00:17:27;;;;;;;;;;;;;;;;;;5133816;27;19997;-75
2022/01/23 00:19:54;;;;;;;;;;;4.80;99.90;;;;;;5115470;28;20320;-74
2022/01/23 00:22:21;;;;;;;;;;;4.90;99.90;;;;;;5133451;27;19947;-74
2022/01/23 00:30:33;;;;;;;;;;;4.90;99.90;;;;;;5133466;27;19915;-74
2022/01/23 00:33:00;;;;;;;;;;;4.80;99.90;;;;;;5133463;27;20335;-74
2022/01/23 00:35:25;;;;;;;;;;;;;;;;;;5132605;28;20006;-75
2022/01/23 00:37:51;;;;;;;;;;;;;;;;;;5133616;28;19957;-74
2022/01/23 00:40:17;;;;;;;;;;;4.90;99.90;;;;;;5133278;28;19911;-74
2022/01/23 00:42:43;;;;;;;;;;;4.90;99.90;;;;;;5134045;28;20006;-74
2022/01/23 00:45:26;;;;;;;;;;;;;;;;;;5133094;28;20382;-74
2022/01/23 00:48:00;;;;;;;;;;;4.80;99.90;;;;;;5127580;28;19955;-74
2022/01/23 00:50:26;;;;;;;;;;;4.80;99.90;;;;;;5113317;28;20348;-74
2022/01/23 00:52:52;;;;;;;;;;;;;;;;;;5095042;28;19908;-74
2022/01/23 00:55:18;;;;;;;;;;;4.90;99.90;;;;;;5112122;28;19930;-74
2022/01/23 00:57:43;;;;;;;;;;;4.90;99.90;;;;;;5116700;28;19908;-74
2022/01/23 01:00:09;;;;;;;;;;;4.80;99.90;;;;;;5116218;28;19912;-74
2022/01/23 01:02:35;;;;;;;;;;;4.90;99.90;;;;;;5117479;28;19916;-74
2022/01/23 01:05:02;;;;;;;;;;;4.90;99.90;;;;;;5129154;27;19915;-74
2022/01/23 01:07:28;;;;;;;;;;;;;;;;;;5137755;27;19918;-75
2022/01/23 01:09:59;;;;;;;;;;;4.80;99.90;;;;;;5137593;27;19907;-74
2022/01/23 01:12:29;;;;;;;;;;;;;;;;;;5119247;27;20355;-74
2022/01/23 01:15:23;;;;;;;;;;;4.80;99.90;;;;;;5137539;27;19922;-74
2022/01/23 01:34:04;;;;;;;;;;;4.80;99.90;;;;;;5137025;27;19920;-74
2022/01/23 01:39:26;;;;;;;;;;;4.90;99.90;;;;;;5119153;27;19908;-74
2022/01/23 01:41:52;;;;;;;;;;;4.80;99.90;;;;;;5137204;27;19990;-73
2022/01/23 01:44:19;;;;;;;;;;;4.70;99.90;;;;;;5136496;27;20386;-74
2022/01/23 01:46:45;;;;;;;;;;;4.80;99.90;;;;;;5137041;27;20066;-74
2022/01/23 01:49:11;;;;;;;;;;;4.80;99.90;;;;;;5136172;27;20375;-74
2022/01/23 01:51:37;;;;;;;;;;;4.80;99.90;;;;;;5136997;27;20018;-74
2022/01/23 01:54:11;;;;;;;;;;;4.80;99.90;;;;;;5136281;27;19908;-74
2022/01/23 01:56:49;;;;;;;;;;;4.70;99.90;;;;;;5118636;27;19908;-74
2022/01/23 01:59:34;;;;;;;;;;;;;;;;;;5136330;27;19952;-74
2022/01/23 02:09:55;;;;;;;;;;;4.70;99.90;;;;;;5136487;27;20377;-74
2022/01/23 02:12:56;;;;;;;;;;;4.80;99.90;;;;;;5135973;27;19907;-74
2022/01/23 02:23:23;;;;;;;;;;;4.90;99.90;;;;;;5136124;27;19918;-74
2022/01/23 02:55:46;;;;;;;;;;;4.80;99.90;;;;;;5135649;27;20275;-74
2022/01/23 02:58:14;;;;;;;;;;;4.80;99.90;;;;;;5116584;27;19908;-74
2022/01/23 03:01:05;;;;;;;;;;;;;;;;;;5135621;27;19907;-74
2022/01/23 03:03:36;;;;;;;;;;;5.00;99.90;;;;;;5135767;27;19907;-74
2022/01/23 03:06:22;;;;;;;;;;;5.10;99.90;;;;;;5135542;27;20359;-74
2022/01/23 03:32:35;;;;;;;;;;;4.90;99.90;;;;;;5134399;27;20473;-74
2022/01/23 03:35:00;;;;;;;;;;;4.80;99.90;;;;;;5134421;27;19919;-74
2022/01/23 03:37:26;;;;;;;;;;;4.80;99.90;;;;;;5134200;27;20250;-74
2022/01/23 03:39:51;;;;;;;;;;;4.90;99.90;;;;;;5134958;27;20443;-74
2022/01/23 03:42:17;;;;;;;;;;;4.90;99.90;;;;;;5115717;27;20332;-74
2022/01/23 03:44:54;;;;;;;;;;;5.00;99.90;;;;;;5134881;27;19913;-74
2022/01/23 03:47:32;;;;;;;;;;;5.20;99.90;;;;;;5134051;27;19914;-74
2022/01/23 03:49:57;;;;;;;;;;;5.10;99.90;;;;;;5134755;27;19907;-74
2022/01/23 03:52:26;;;;;;;;;;;;;;;;;;5133775;27;19998;-74
2022/01/23 03:54:52;;;;;;;;;;;5.00;99.90;;;;;;5134425;27;19916;-74
2022/01/23 03:57:17;;;;;;;;;;;5.20;99.90;;;;;;5133954;27;19943;-74
2022/01/23 03:59:43;;;;;;;;;;;5.20;99.90;;;;;;5134224;27;19907;-74
2022/01/23 04:02:09;;;;;;;;;;;;;;;;;;5133596;27;19912;-76
2022/01/23 04:04:39;;;;;;;;;;;5.10;99.90;;;;;;5134489;27;20054;-74
2022/01/23 04:07:20;;;;;;;;;;;5.00;99.90;;;;;;5134391;27;19911;-74
2022/01/23 04:09:47;;;;;;;;;;;5.00;99.90;;;;;;5134332;27;19911;-74
2022/01/23 04:13:07;;;;;;;;;;;5.00;99.90;;;;;;5132696;27;19907;-74
2022/01/23 04:34:11;;;;;;;;;;;5.00;99.90;;;;;;5133592;27;19943;-74
2022/01/23 05:01:14;;;;;;;;;;;;;;;;;;5133556;28;20383;-74
2022/01/23 05:06:21;;;;;;;;;;;;;;;;;;5133781;28;19912;-74
2022/01/23 05:08:46;;;;;;;;;;;5.20;99.90;;;;;;5133886;28;20362;-74
2022/01/23 05:11:13;;;;;;;;;;;;;;;;;;5115131;28;19911;-79
2022/01/23 05:13:38;;;;;;;;;;;5.10;99.90;;;;;;5115169;28;20351;-74
2022/01/23 05:16:04;;;;;;;;;;;5.10;99.90;;;;;;5133350;28;19919;-74
2022/01/23 05:18:32;;;;;;;;;;;5.10;99.90;;;;;;5132584;28;20295;-74
2022/01/23 05:21:21;;;;;;;;;;;5.10;99.90;;;;;;5133623;28;19915;-74
2022/01/23 05:23:46;;;;;;;;;;;5.00;99.90;;;;;;5115371;28;19915;-74
2022/01/23 05:26:12;;;;;;;;;;;5.10;99.90;;;;;;5115101;28;19907;-74
2022/01/23 05:28:38;;;;;;;;;;;5.00;99.90;;;;;;5114745;28;19914;-74
2022/01/23 05:31:03;;;;;;;;;;;5.00;99.90;;;;;;5133519;28;20380;-74
2022/01/23 05:33:29;;;;;;;;;;;4.90;99.90;;;;;;5132462;28;19907;-74
2022/01/23 05:35:54;;;;;;;;;;;4.90;99.90;;;;;;5114517;28;19931;-74
2022/01/23 05:38:20;;;;;;;;;;;5.00;99.90;;;;;;5133195;28;19930;-74
2022/01/23 05:40:54;;;;;;;;;;;5.00;99.90;;;;;;5133418;28;19998;-74
2022/01/23 05:43:20;;;;;;;;;;;5.00;99.90;;;;;;5117478;27;19907;-74
2022/01/23 05:45:46;;;;;;;;;;;5.00;99.90;;;;;;5118731;27;19908;-74
2022/01/23 05:48:11;;;;;;;;;;;5.10;99.90;;;;;;5136744;27;19976;-74
2022/01/23 05:50:37;;;;;;;;;;;;;;;;;;5136452;27;19983;-74
2022/01/23 05:53:03;;;;;;;;;;;5.10;99.90;;;;;;5136724;27;19941;-74
2022/01/23 05:55:29;;;;;;;;;;;5.00;99.90;;;;;;5136016;27;20434;-74
2022/01/23 05:57:54;;;;;;;;;;;5.00;99.90;;;;;;5136887;27;19954;-74
2022/01/23 06:00:19;;;;;;;;;;;5.00;99.90;;;;;;5136265;27;19951;-74
2022/01/23 06:02:45;;;;;;;;;;;5.10;99.90;;;;;;5136782;27;20264;-74
2022/01/23 06:05:11;;;;;;;;;;;;;;;;;;5136435;27;19908;-74
2022/01/23 06:07:36;;;;;;;;;;;5.00;99.90;;;;;;5136111;27;19923;-74
2022/01/23 06:10:03;;;;;;;;;;;5.00;99.90;;;;;;5136668;27;19907;-74
2022/01/23 06:12:29;;;;;;;;;;;5.10;99.90;;;;;;5117527;27;19934;-74
2022/01/23 06:14:54;;;;;;;;;;;5.10;99.90;;;;;;5136711;27;20363;-74
2022/01/23 06:17:20;;;;;;;;;;;5.00;99.90;;;;;;5135831;27;20351;-74
2022/01/23 06:19:45;;;;;;;;;;;5.00;99.90;;;;;;5136481;27;19908;-74
2022/01/23 06:22:13;;;;;;;;;;;;;;;;;;5136444;27;19915;-74
2022/01/23 06:24:45;;;;;;;;;;;4.90;99.90;;;;;;5135753;27;19911;-74
2022/01/23 06:27:11;;;;;;;;;;;5.00;99.90;;;;;;5118186;27;20359;-74
2022/01/23 06:29:37;;;;;;;;;;;5.10;99.90;;;;;;5135605;27;20169;-75
2022/01/23 06:32:02;;;;;;;;;;;5.00;99.90;;;;;;5136223;27;19911;-75
2022/01/23 06:34:28;;;;;;;;;;;5.00;99.90;;;;;;5135271;27;20007;-75
2022/01/23 06:36:54;;;;;;;;;;;5.10;99.90;;;;;;5136164;27;20351;-75
2022/01/23 06:39:21;;;;;;;;;;;5.00;99.90;;;;;;5117015;27;19915;-76
2022/01/23 06:41:47;;;;;;;;;;;5.10;99.90;;;;;;5136179;27;19961;-75
2022/01/23 06:44:12;;;;;;;;;;;;;;;;;;5136031;27;19915;-75
2022/01/23 06:46:39;;;;;;;;;;;5.10;99.90;;;;;;5116911;27;20370;-75
2022/01/23 06:49:05;;;;;;;;;;;5.20;99.90;;;;;;5135774;27;19908;-75
2022/01/23 06:51:31;;;;;;;;;;;5.20;99.90;;;;;;5135212;27;19913;-75
2022/01/23 06:53:56;;;;;;;;;;;5.20;99.90;;;;;;5117345;27;20351;-75
2022/01/23 06:56:22;;;;;;;;;;;5.10;99.90;;;;;;5134789;27;19977;-76
2022/01/23 06:58:47;;;;;;;;;;;5.00;99.90;;;;;;5135492;27;19908;-75
2022/01/23 07:01:13;;;;;;;;;;;5.10;99.90;;;;;;5135635;27;19907;-75
2022/01/23 07:03:39;;;;;;;;;;;5.10;99.90;;;;;;5134866;27;20014;-74
2022/01/23 07:06:04;;;;;;;;;;;5.20;99.90;;;;;;5135617;27;20013;-75
2022/01/23 07:08:30;;;;;;;;;;;5.20;99.90;;;;;;5134603;27;19915;-75
2022/01/23 07:10:56;;;;;;;;;;;5.20;99.90;;;;;;5135715;27;19914;-75
2022/01/23 07:13:22;;;;;;;;;;;5.10;99.90;;;;;;5134782;27;19914;-75
2022/01/23 07:15:47;;;;;;;;;;;5.00;99.90;;;;;;5135314;27;19922;-75
2022/01/23 07:18:15;;;;;;;;;;;4.90;99.90;;;;;;5126542;27;19908;-74
2022/01/23 07:20:41;;;;;;;;;;;4.90;99.90;;;;;;5114115;28;19908;-75
2022/01/23 07:23:07;;;;;;;;;;;4.90;99.90;;;;;;5114665;28;20263;-75
2022/01/23 07:25:32;;;;;;;;;;;4.90;99.90;;;;;;5114009;28;19912;-75
2022/01/23 07:27:59;;;;;;;;;;;4.90;99.90;;;;;;5096329;28;20305;-76
2022/01/23 07:32:50;;;;;;;;;;;4.90;99.90;;;;;;5114177;28;20336;-74
2022/01/23 07:35:16;;;;;;;;;;;5.00;99.90;;;;;;5114535;28;19920;-75
2022/01/23 07:37:41;;;;;;;;;;;5.00;99.90;;;;;;5113510;28;20378;-75
2022/01/23 07:40:07;;;;;;;;;;;5.10;99.90;;;;;;5114085;28;20378;-74
2022/01/23 07:42:33;;;;;;;;;;;5.10;99.90;;;;;;5113401;28;20400;-74
2022/01/23 07:44:59;;;;;;;;;;;5.20;99.90;;;;;;5120884;27;19935;-75
2022/01/23 07:47:24;;;;;;;;;;;5.30;99.90;;;;;;5132568;27;19907;-74
2022/01/23 07:49:50;;;;;;;;;;;5.10;99.90;;;;;;5114006;28;20291;-75
2022/01/23 07:52:16;;;;;;;;;;;5.00;99.90;;;;;;5113895;28;19908;-75
2022/01/23 07:54:42;;;;;;;;;;;4.80;99.90;;;;;;5113599;28;20370;-74
2022/01/23 07:57:07;;;;;;;;;;;4.70;99.90;;;;;;5095807;28;20371;-73
2022/01/23 07:59:34;;;;;;;;;;;4.60;99.90;;;;;;5113475;28;19957;-74
2022/01/23 08:02:00;;;;;;;;;;;4.60;99.90;;;;;;5113916;28;19908;-74
2022/01/23 08:04:25;;;;;;;;;;;4.80;99.90;;;;;;5112751;28;19919;-75
2022/01/23 08:07:06;;;;;;;;;;;4.80;99.90;;;;;;5113970;28;19912;-75
2022/01/23 08:09:32;;;;;;;;;;;5.00;99.90;;;;;;5095008;28;19915;-75
2022/01/23 08:11:57;;;;;;;;;;;4.90;99.90;;;;;;5113853;28;19911;-75
2022/01/23 08:14:23;;;;;;;;;;;;;;;;;;5095165;28;19916;-76
2022/01/23 08:16:49;;;;;;;;;;;5.00;99.90;;;;;;5113695;28;20413;-75
2022/01/23 08:19:14;;;;;;;;;;;5.00;99.90;;;;;;5113551;28;19947;-74
2022/01/23 08:21:40;;;;;;;;;;;5.40;99.90;;;;;;5113008;28;20366;-74
2022/01/23 08:24:05;;;;;;;;;;;5.10;99.90;;;;;;5113661;28;20323;-74
2022/01/23 08:26:31;;;;;;;;;;;5.00;99.90;;;;;;5112846;28;19907;-72
2022/01/23 08:28:56;;;;;;;;;;;4.90;99.90;;;;;;5113566;28;19964;-76
2022/01/23 08:31:22;;;;;;;;;;;;;;;;;;5113450;28;19935;-73
2022/01/23 08:33:48;;;;;;;;;;;5.20;99.90;;;;;;5094390;28;19908;-75
2022/01/23 08:36:14;;;;;;;;;;;5.10;99.90;;;;;;5113184;28;19920;-74
2022/01/23 08:38:40;;;;;;;;;;;;;;;;;;5094550;28;20249;-74
2022/01/23 08:43:44;;;;;;;;;;;5.30;99.90;;;;;;5112881;28;20376;-69
2022/01/23 08:46:09;;;;;;;;;;;5.30;99.90;;;;;;5113171;28;19908;-74
2022/01/23 08:48:35;;;;;;;;;;;5.50;99.90;;;;;;5112664;28;19914;-70
2022/01/23 08:51:01;;;;;;;;;;;;;;;;;;5113014;28;19908;-70
2022/01/23 08:53:26;;;;;;;;;;;5.30;99.90;;;;;;5094472;28;19953;-73
2022/01/23 08:55:52;;;;;;;;;;;5.30;99.90;;;;;;5095043;28;19916;-72
2022/01/23 08:58:17;;;;;;;;;;;5.10;99.90;;;;;;5113250;28;19912;-71
2022/01/23 09:00:43;;;;;;;;;;;5.50;99.90;;;;;;5112632;28;20427;-75
2022/01/23 09:03:09;;;;;;;;;;;;;;;;;;5113243;28;19912;-73
2022/01/23 09:05:34;;;;;;;;;;;;;;;;;;5112301;28;19912;-74
2022/01/23 09:08:00;;;;;;;;;;;5.80;99.90;;;;;;5113226;28;20321;-74
2022/01/23 09:10:28;;;;;;;;;;;;;;;;;;5113230;28;19914;-74
2022/01/23 09:13:11;;;;;;;;;;;;;;;;;;5113420;28;19908;-72
2022/01/23 09:15:37;;;;;;;;;;;5.80;99.90;;;;;;5112720;28;19916;-73
2022/01/23 09:18:03;;;;;;;;;;;6.20;99.90;;;;;;5097620;28;19908;-72
2022/01/23 09:20:29;;;;;;;;;;;6.40;99.90;;;;;;5098493;28;19912;-74
2022/01/23 09:22:54;;;;;;;;;;;6.00;99.90;;;;;;5116555;28;20019;-74
2022/01/23 09:25:20;;;;;;;;;;;;;;;;;;5116600;28;19915;-74
2022/01/23 09:27:46;;;;;;;;;;;6.30;99.90;;;;;;5116274;28;19915;-75
2022/01/23 09:30:19;;;;;;;;;;;6.40;99.90;;;;;;5116606;28;19908;-73
2022/01/23 09:32:48;;;;;;;;;;;6.30;99.90;;;;;;5116080;28;19908;-73
2022/01/23 09:35:14;;;;;;;;;;;6.20;99.90;;;;;;5116506;28;20348;-73
2022/01/23 09:37:41;;;;;;;;;;;6.20;99.90;;;;;;5097764;28;19919;-73
2022/01/23 09:40:07;;;;;;;;;;;6.10;99.90;;;;;;5116725;28;19908;-73
2022/01/23 09:42:34;;;;;;;;;;;6.00;99.90;;;;;;5115766;28;19908;-73
2022/01/23 09:45:01;;;;;;;;;;;6.00;99.90;;;;;;5116716;28;20027;-73
2022/01/23 09:47:27;;;;;;;;;;;6.10;99.90;;;;;;5116443;28;19907;-73
2022/01/23 09:49:53;;;;;;;;;;;6.10;99.90;;;;;;5115919;28;19907;-73
2022/01/23 09:52:19;;;;;;;;;;;6.00;99.90;;;;;;5116568;28;19958;-73
2022/01/23 09:54:52;;;;;;;;;;;6.10;99.90;;;;;;5115467;28;20368;-73
2022/01/23 09:57:19;;;;;;;;;;;5.90;99.90;;;;;;5116486;28;19957;-72
2022/01/23 09:59:45;;;;;;;;;;;5.80;99.90;;;;;;5115644;28;19943;-72
2022/01/23 10:02:10;;;;;;;;;;;5.90;99.90;;;;;;5116300;28;19914;-72
2022/01/23 10:04:36;;;;;;;;;;;6.00;99.90;;;;;;5115731;28;19911;-72
2022/01/23 10:07:03;;;;;;;;;;;5.90;99.90;;;;;;5116102;28;19912;-72
2022/01/23 10:09:31;;;;;;;;;;;5.90;99.90;;;;;;5116076;28;20372;-72
2022/01/23 10:11:57;;;;;;;;;;;5.90;99.90;;;;;;5116089;28;19911;-72
2022/01/23 10:14:23;;;;;;;;;;;6.00;99.90;;;;;;5115672;28;20287;-72
2022/01/23 10:16:48;;;;;;;;;;;5.90;99.90;;;;;;5115325;28;19918;-73
2022/01/23 10:19:14;;;;;;;;;;;;;;;;;;5115662;28;20245;-72
2022/01/23 10:21:40;;;;;;;;;;;;;;;;;;5114933;28;20412;-72
2022/01/23 10:24:06;;;;;;;;;;;;;;;;;;5115739;28;20002;-72
2022/01/23 10:26:32;;;;;;;;;;;;;;;;;;5115130;28;20343;-73
2022/01/23 10:29:11;;;;;;;;;;;6.30;99.90;;;;;;5115013;28;19953;-72
2022/01/23 10:31:56;;;;;;;;;;;6.30;99.90;;;;;;5114939;28;20355;-73
2022/01/23 10:34:41;;;;;;;;;;;6.20;99.90;;;;;;5115053;28;19920;-72
2022/01/23 10:37:06;;;;;;;;;;;6.20;99.90;;;;;;5115554;28;19922;-72
2022/01/23 10:39:32;;;;;;;;;;;;;;;;;;5114992;28;19994;-76
2022/01/23 10:42:23;;;;;;;;;;;6.50;99.90;;;;;;5097121;28;19907;-72
2022/01/23 10:47:45;;;;;;;;;;;6.50;99.90;;;;;;5114522;28;19956;-74
2022/01/23 10:50:11;;;;;;;;;;;6.50;99.90;;;;;;5115370;28;19908;-72
2022/01/23 10:52:38;;;;;;;;;;;6.40;99.90;;;;;;5114668;28;20000;-73
2022/01/23 10:55:23;;;;;;;;;;;6.40;99.90;;;;;;5115181;28;19965;-73
2022/01/23 10:57:50;;;;;;;;;;;6.50;99.90;;;;;;5114550;28;19911;-73
2022/01/23 11:00:28;;;;;;;;;;;6.60;99.90;;;;;;5115135;28;19916;-73
2022/01/23 11:02:54;;;;;;;;;;;;;;;;;;5114421;28;19911;-73
2022/01/23 11:05:19;;;;;;;;;;;6.70;99.90;;;;;;5120797;27;20014;-73
2022/01/23 11:07:46;;;;;;;;;;;6.70;99.90;;;;;;5134693;27;19954;-72
2022/01/23 11:10:13;;;;;;;;;;;;;;;;;;5135307;27;19907;-73
2022/01/23 11:17:22;;;;;;;;;;;6.70;99.90;;;;;;5134868;27;19914;-73
2022/01/23 11:18:30;;;;;;;;;;;6.60;99.90;;;;;;5134890;27;19964;-72
2022/01/23 11:20:55;;;;;;;;;;;6.60;99.90;;;;;;5134969;27;19915;-72
2022/01/23 11:23:22;;;;;;;;;;;6.60;99.90;;;;;;5116781;27;20259;-73
2022/01/23 11:25:57;;;;;;;;;;;6.70;99.90;;;;;;5133385;27;19911;-72
2022/01/23 11:28:23;;;;;;;;;;;;;;;;;;5116293;27;19911;-72
2022/01/23 11:30:48;;;;;;;;;;;6.60;99.90;;;;;;5128918;27;19992;-72
2022/01/23 11:33:17;;;;;;;;;;;6.50;99.90;;;;;;5132957;27;19915;-73
2022/01/23 11:35:43;;;;;;;;;;;;;;;;;;5133821;27;19926;-73
2022/01/23 11:38:15;;;;;;;;;;;;;;;;;;5124233;27;20006;-75
2022/01/23 11:53:59;;;;;;;;;;;6.80;99.60;;;;;;5130768;27;19919;-72
2022/01/23 11:56:25;;;;;;;;;;;6.80;99.30;;;;;;5113363;28;19916;-71
2022/01/23 11:59:18;;;;;;;;;;;6.70;99.50;;;;;;5121588;27;20374;-73
2022/01/23 12:01:46;;;;;;;;;;;6.80;99.60;;;;;;5121327;27;19915;-73
2022/01/23 12:04:18;;;;;;;;;;;;;;;;;;5118841;27;20371;-74
2022/01/23 12:06:47;;;;;;;;;;;;;;;;;;5115805;27;20049;-76
2022/01/23 12:09:12;;;;;;;;;;;;;;;;;;5114106;28;19935;-74
2022/01/23 12:11:42;;;;;;;;;;;6.60;99.40;;;;;;5123930;27;19911;-75
2022/01/23 12:16:43;;;;;;;;;;;;;;;;;;5123551;27;19919;-74
2022/01/23 12:19:21;;;;;;;;;;;6.80;99.20;;;;;;5111618;27;19914;-73
2022/01/23 12:21:48;;;;;;;;;;;6.70;98.80;;;;;;5133237;27;20283;-74
2022/01/23 12:24:15;;;;;;;;;;;6.70;98.20;;;;;;5134049;27;19914;-73
2022/01/23 12:26:44;;;;;;;;;;;6.80;98.70;;;;;;5133291;27;19998;-72
2022/01/23 12:29:14;;;;;;;;;;;6.80;98.50;;;;;;5119706;27;19916;-72
2022/01/23 12:31:40;;;;;;;;;;;;;;;;;;5113249;28;20347;-76
2022/01/23 12:34:06;;;;;;;;;;;7.30;99.90;;;;;;5094655;28;19920;-74
2022/01/23 12:36:32;;;;;;;;;;;8.20;99.70;;;;;;5113327;28;19930;-74
2022/01/23 12:39:16;;;;;;;;;;;9.50;99.90;;;;;;5118642;28;20062;-74
2022/01/23 12:41:51;;;;;;;;;;;8.20;93.80;;;;;;5124403;28;19965;-72
2022/01/23 12:44:22;;;;;;;;;;;7.40;96.80;;;;;;5113629;28;19907;-73
2022/01/23 12:46:50;;;;;;;;;;;7.00;99.70;;;;;;5112113;28;19955;-72
2022/01/23 12:49:15;;;;;;;;;;;6.80;99.90;;;;;;5130482;28;20387;-71
2022/01/23 12:51:42;;;;;;;;;;;6.80;99.90;;;;;;5135739;27;19965;-71
2022/01/23 12:54:12;;;;;;;;;;;6.80;99.60;;;;;;5121163;27;19911;-71
2022/01/23 12:56:42;;;;;;;;;;;6.80;99.50;;;;;;5117188;28;19916;-72
2022/01/23 12:59:11;;;;;;;;;;;6.80;99.10;;;;;;5098580;28;19918;-72
2022/01/23 13:01:40;;;;;;;;;;;6.60;99.40;;;;;;5098999;28;19964;-71
2022/01/23 13:04:06;;;;;;;;;;;;;;;;;;5117207;28;19918;-72
2022/01/23 13:06:33;;;;;;;;;;;6.70;99.90;;;;;;5117282;28;19919;-72
2022/01/23 13:09:39;;;;;;;;;;;6.70;99.90;;;;;;5116767;28;19960;-72
2022/01/23 13:14:30;;;;;;;;;;;;;;;;;;5116961;28;20364;-72
2022/01/23 13:17:43;;;;;;;;;;;7.00;99.50;;;;;;5116092;28;19994;-72
2022/01/23 13:30:46;;;;;;;;;;;;;;;;;;5116212;28;19908;-72
2022/01/23 13:33:19;;;;;;;;;;;;;;;;;;5116638;28;20399;-72
2022/01/23 13:35:50;;;;;;;;;;;;;;;;;;5115883;28;20372;-72
2022/01/23 13:38:16;;;;;;;;;;;;;;;;;;5097006;28;20302;-78
2022/01/23 13:40:43;;;;;;;;;;;;;;;;;;5112933;28;19910;-73
2022/01/23 13:59:07;;;;;;;;;;;6.90;97.40;;;;;;5136444;27;19956;-72
2022/01/23 14:01:47;;;;;;;;;;;;;;;;;;5137025;27;19903;-72
2022/01/23 14:04:14;;;;;;;;;;;7.00;96.90;;;;;;5136314;27;19903;-72
2022/01/23 14:06:40;;;;;;;;;;;6.90;97.10;;;;;;5137196;27;20351;-72
2022/01/23 14:09:07;;;;;;;;;;;6.90;97.10;;;;;;5136251;27;19903;-73
2022/01/23 14:11:33;;;;;;;;;;;;;;;;;;5136781;27;19903;-72
2022/01/23 14:14:24;;;;;;;;;;;6.90;97.00;;;;;;5135989;27;20002;-73
2022/01/23 14:16:51;;;;;;;;;;;6.80;97.10;;;;;;5130910;27;19915;-73
2022/01/23 14:19:22;;;;;;;;;;;6.80;97.90;;;;;;5136248;27;19904;-73
2022/01/23 14:21:49;;;;;;;;;;;6.80;98.20;;;;;;5135926;27;20026;-73
2022/01/23 14:24:25;;;;;;;;;;;6.80;98.00;;;;;;5136654;27;19903;-72
2022/01/23 14:26:58;;;;;;;;;;;6.90;97.60;;;;;;5135963;27;19953;-73
2022/01/23 14:29:24;;;;;;;;;;;6.90;97.50;;;;;;5136454;27;19904;-73
2022/01/23 14:32:03;;;;;;;;;;;6.90;97.30;;;;;;5135691;27;19911;-72
2022/01/23 14:34:29;;;;;;;;;;;6.90;97.40;;;;;;5135710;27;20379;-73
2022/01/23 14:36:56;;;;;;;;;;;6.90;98.10;;;;;;5135307;27;19918;-74
2022/01/23 14:39:23;;;;;;;;;;;6.90;98.50;;;;;;5135916;27;20335;-74
2022/01/23 14:41:48;;;;;;;;;;;6.80;98.70;;;;;;5135596;27;19946;-74
2022/01/23 14:44:15;;;;;;;;;;;6.90;99.40;;;;;;5136250;27;19915;-73
2022/01/23 14:46:40;;;;;;;;;;;6.80;98.90;;;;;;5135561;27;20251;-74
2022/01/23 14:49:10;;;;;;;;;;;6.70;98.40;;;;;;5134990;27;20086;-74
2022/01/23 14:51:37;;;;;;;;;;;6.70;98.30;;;;;;5135923;27;19926;-73
2022/01/23 14:54:02;;;;;;;;;;;6.60;98.00;;;;;;5135252;27;20311;-74
2022/01/23 14:56:29;;;;;;;;;;;6.60;98.00;;;;;;5135560;27;19969;-73
2022/01/23 14:58:55;;;;;;;;;;;6.50;98.00;;;;;;5135260;27;19908;-73
2022/01/23 15:01:20;;;;;;;;;;;6.50;98.50;;;;;;5117102;27;19952;-74
2022/01/23 15:03:53;;;;;;;;;;;6.50;98.40;;;;;;5135585;27;19908;-73
2022/01/23 15:06:19;;;;;;;;;;;6.60;98.40;;;;;;5135774;27;19959;-74
2022/01/23 15:08:45;;;;;;;;;;;6.50;98.40;;;;;;5135109;27;19904;-73
2022/01/23 15:11:11;;;;;;;;;;;6.50;98.70;;;;;;5134689;27;19949;-73
2022/01/23 15:13:36;;;;;;;;;;;6.40;98.70;;;;;;5135036;27;19934;-74
2022/01/23 15:16:02;;;;;;;;;;;6.40;98.90;;;;;;5115480;27;19907;-74
2022/01/23 15:18:27;;;;;;;;;;;6.60;98.90;;;;;;5135291;27;19911;-74
2022/01/23 15:20:53;;;;;;;;;;;;;;;;;;5134438;27;19998;-73
2022/01/23 15:23:19;;;;;;;;;;;;;;;;;;5116559;27;19904;-73
2022/01/23 15:25:46;;;;;;;;;;;6.30;98.90;;;;;;5135183;27;19994;-74
2022/01/23 15:28:11;;;;;;;;;;;6.10;99.40;;;;;;5116238;27;20403;-74
2022/01/23 15:30:37;;;;;;;;;;;6.20;99.80;;;;;;5135162;27;19994;-74
2022/01/23 15:33:06;;;;;;;;;;;6.20;99.70;;;;;;5134521;27;19904;-74
2022/01/23 15:35:32;;;;;;;;;;;;;;;;;;5134858;27;19915;-74
2022/01/23 15:37:57;;;;;;;;;;;6.30;99.90;;;;;;5134445;27;20270;-74
2022/01/23 15:40:24;;;;;;;;;;;6.30;99.90;;;;;;5135342;27;19903;-74
2022/01/23 15:42:51;;;;;;;;;;;6.30;99.90;;;;;;5116529;27;20014;-74
2022/01/23 15:45:17;;;;;;;;;;;6.20;99.90;;;;;;5134841;27;20024;-74
2022/01/23 15:47:42;;;;;;;;;;;6.30;99.90;;;;;;5134800;27;20370;-74
2022/01/23 15:50:09;;;;;;;;;;;6.20;99.90;;;;;;5133976;27;19998;-73
2022/01/23 15:52:35;;;;;;;;;;;;;;;;;;5134811;27;19910;-74
2022/01/23 15:55:00;;;;;;;;;;;6.20;99.90;;;;;;5133999;27;20364;-74
2022/01/23 15:57:26;;;;;;;;;;;6.10;99.90;;;;;;5134725;27;19904;-73
2022/01/23 15:59:52;;;;;;;;;;;;;;;;;;5134010;27;20014;-79
2022/01/23 16:02:17;;;;;;;;;;;6.00;99.90;;;;;;5134743;27;20255;-73
2022/01/23 16:04:43;;;;;;;;;;;6.10;99.90;;;;;;5134293;27;19907;-73
2022/01/23 16:07:16;;;;;;;;;;;6.20;99.90;;;;;;5133636;27;19908;-74
2022/01/23 16:09:42;;;;;;;;;;;6.20;99.90;;;;;;5116261;27;19947;-73
2022/01/23 16:12:08;;;;;;;;;;;6.10;99.90;;;;;;5133858;27;19910;-74
2022/01/23 16:14:34;;;;;;;;;;;6.20;99.90;;;;;;5134368;27;19903;-74
2022/01/23 16:16:59;;;;;;;;;;;6.10;99.90;;;;;;5134104;27;20335;-74
2022/01/23 16:19:25;;;;;;;;;;;5.90;99.90;;;;;;5134233;27;19903;-74
2022/01/23 16:21:54;;;;;;;;;;;5.90;99.90;;;;;;5116000;27;19926;-74
2022/01/23 16:24:21;;;;;;;;;;;5.80;99.90;;;;;;5134412;27;19908;-74
2022/01/23 16:26:48;;;;;;;;;;;5.70;99.90;;;;;;5133947;27;19904;-73
2022/01/23 16:29:14;;;;;;;;;;;5.80;99.90;;;;;;5133490;27;19907;-74
2022/01/23 16:31:39;;;;;;;;;;;6.10;99.90;;;;;;5134502;27;20354;-73
2022/01/23 16:34:05;;;;;;;;;;;5.90;99.90;;;;;;5114830;28;19915;-74
2022/01/23 21:04:37;;;;;;;;;;;;;;;;;;5118737;28;19912;-74
2022/01/23 21:07:03;;;;;;;;;;;5.60;92.60;;;;;;5126211;28;19915;-79
2022/01/23 21:09:28;;;;;;;;;;;5.60;92.80;;;;;;5131466;28;20379;-76
2022/01/23 21:11:54;;;;;;;;;;;5.60;92.90;;;;;;5113132;28;19914;-74
2022/01/23 21:14:45;;;;;;;;;;;5.60;92.90;;;;;;5130887;28;19907;-73
2022/01/23 21:41:37;;;;;;;;;;;5.40;94.10;;;;;;5089603;28;19920;-77
2022/01/23 21:44:03;;;;;;;;;;;5.30;94.10;;;;;;5089600;28;19924;-76
2022/01/23 21:46:29;;;;;;;;;;;5.40;94.30;;;;;;5095953;28;20372;-76
2022/01/23 21:48:54;;;;;;;;;;;5.40;94.30;;;;;;5109351;28;20013;-77
2022/01/23 21:51:20;;;;;;;;;;;5.30;94.40;;;;;;5109481;28;19908;-77
2022/01/23 21:53:45;;;;;;;;;;;5.30;94.60;;;;;;5109784;28;20348;-78
2022/01/23 21:56:12;;;;;;;;;;;5.30;94.80;;;;;;5091638;28;19908;-77
2022/01/23 21:58:38;;;;;;;;;;;5.20;94.60;;;;;;5091877;28;20486;-78
2022/01/23 22:01:04;;;;;;;;;;;5.00;92.00;;;;;;5091945;28;20356;-77
2022/01/23 22:03:32;;;;;;;;;;;5.00;91.60;;;;;;5101559;28;19920;-76
2022/01/23 22:05:59;;;;;;;;;;;5.20;92.00;;;;;;5109399;28;19912;-78
2022/01/23 22:08:24;;;;;;;;;;;5.20;92.00;;;;;;5109079;28;19915;-77
2022/01/23 22:16:11;;;;;;;;;;;5.30;93.10;;;;;;5085633;28;19916;-77
2022/01/23 22:18:40;;;;;;;;;;;5.30;93.20;;;;;;5095323;28;19912;-78
2022/01/23 22:21:08;;;;;;;;;;;5.30;93.70;;;;;;5094915;28;19919;-78
2022/01/23 22:29:07;;;;;;;;;;;5.20;94.20;;;;;;5072723;28;19908;-76
2022/01/23 22:31:33;;;;;;;;;;;5.20;94.00;;;;;;5084953;28;19915;-75
2022/01/23 22:33:59;;;;;;;;;;;5.30;93.20;;;;;;5095218;28;20422;-76
2022/01/23 22:36:25;;;;;;;;;;;5.00;93.00;;;;;;5094521;28;20431;-76
2022/01/23 22:38:54;;;;;;;;;;;5.10;92.90;;;;;;5095325;28;19947;-76
2022/01/23 22:41:20;;;;;;;;;;;;;;;;;;5093819;28;19915;-75
2022/01/23 22:43:52;;;;;;;;;;;5.20;92.20;;;;;;5094237;28;19920;-76
2022/01/23 22:48:51;;;;;;;;;;;5.00;91.70;;;;;;5081936;28;20345;-76
2022/01/23 22:51:17;;;;;;;;;;;;;;;;;;5073489;28;19957;-76
2022/01/23 22:53:42;;;;;;;;;;;5.10;91.40;;;;;;5073908;28;19913;-76
2022/01/23 22:56:08;;;;;;;;;;;5.10;91.70;;;;;;5074341;28;20387;-76
2022/01/23 22:58:33;;;;;;;;;;;5.10;91.50;;;;;;5074072;28;20439;-76
2022/01/23 23:00:59;;;;;;;;;;;5.10;91.80;;;;;;5074476;28;19909;-76
2022/01/23 23:03:25;;;;;;;;;;;;;;;;;;5060216;28;20277;-75
2022/01/23 23:05:50;;;;;;;;;;;5.00;91.40;;;;;;5054322;28;20007;-76
2022/01/23 23:08:16;;;;;;;;;;;;;;;;;;5036406;28;20346;-76
2022/01/23 23:10:43;;;;;;;;;;;5.00;91.60;;;;;;5035587;28;20429;-76
2022/01/23 23:13:17;;;;;;;;;;;5.00;91.70;;;;;;5054329;28;19909;-77
2022/01/23 23:15:53;;;;;;;;;;;4.90;91.80;;;;;;5053470;28;19981;-76
2022/01/23 23:18:22;;;;;;;;;;;4.80;91.70;;;;;;5062701;28;19912;-76
2022/01/23 23:20:58;;;;;;;;;;;4.80;91.40;;;;;;5073457;28;19908;-76